sensor_id;sensor_type;location;lat;lon;timestamp;pressure;altitude;pressure_sealevel;temperature;humidity
70314;BME280;57725;47.526;18.986;2023-03-19T00:02:27;100214.03;;;10.46;76.91
70314;BME280;57725;47.526;18.986;2023-03-19T00:04:53;100213.28;;;10.42;77.24
70314;BME280;57725;47.526;18.986;2023-03-19T00:07:21;100207.41;;;10.37;77.40
70314;BME280;57725;47.526;18.986;2023-03-19T00:09:46;100216.16;;;10.36;77.19
70314;BME280;57725;47.526;18.986;2023-03-19T00:12:14;100213.63;;;10.33;77.31
70314;BME280;57725;47.526;18.986;2023-03-19T00:14:39;100207.72;;;10.28;77.43
70314;BME280;57725;47.526;18.986;2023-03-19T00:17:04;100208.63;;;10.27;78.00
70314;BME280;57725;47.526;18.986;2023-03-19T00:19:31;100209.59;;;10.25;77.88
70314;BME280;57725;47.526;18.986;2023-03-19T00:21:56;100204.44;;;10.23;78.55
70314;BME280;57725;47.526;18.986;2023-03-19T00:24:23;100204.59;;;10.17;78.52
70314;BME280;57725;47.526;18.986;2023-03-19T00:26:49;100199.41;;;10.15;77.98
70314;BME280;57725;47.526;18.986;2023-03-19T00:29:15;100196.13;;;10.10;78.58
70314;BME280;57725;47.526;18.986;2023-03-19T00:31:41;100199.59;;;10.11;78.46
70314;BME280;57725;47.526;18.986;2023-03-19T00:34:08;100199.66;;;10.09;78.63
70314;BME280;57725;47.526;18.986;2023-03-19T00:36:39;100199.81;;;10.05;78.44
70314;BME280;57725;47.526;18.986;2023-03-19T00:39:09;100195.47;;;10.04;78.93
70314;BME280;57725;47.526;18.986;2023-03-19T00:41:35;100198.19;;;10.02;78.92
70314;BME280;57725;47.526;18.986;2023-03-19T00:44:01;100194.81;;;9.99;79.40
70314;BME280;57725;47.526;18.986;2023-03-19T00:46:30;100193.06;;;9.99;79.48
70314;BME280;57725;47.526;18.986;2023-03-19T00:48:56;100187.06;;;9.96;79.75
70314;BME280;57725;47.526;18.986;2023-03-19T00:51:22;100189.78;;;9.93;79.49
70314;BME280;57725;47.526;18.986;2023-03-19T00:53:51;100178.66;;;9.88;80.15
70314;BME280;57725;47.526;18.986;2023-03-19T00:56:16;100184.69;;;9.90;80.00
70314;BME280;57725;47.526;18.986;2023-03-19T00:58:45;100178.72;;;9.86;79.85
70314;BME280;57725;47.526;18.986;2023-03-19T01:01:14;100182.34;;;9.82;80.13
70314;BME280;57725;47.526;18.986;2023-03-19T01:03:40;100188.41;;;9.82;80.41
70314;BME280;57725;47.526;18.986;2023-03-19T01:06:05;100189.38;;;9.80;80.06
70314;BME280;57725;47.526;18.986;2023-03-19T01:08:31;100187.69;;;9.79;80.60
70314;BME280;57725;47.526;18.986;2023-03-19T01:11:10;100193.84;;;9.76;80.53
70314;BME280;57725;47.526;18.986;2023-03-19T01:13:36;100193.06;;;9.74;81.04
70314;BME280;57725;47.526;18.986;2023-03-19T01:16:04;100201.78;;;9.73;81.22
70314;BME280;57725;47.526;18.986;2023-03-19T01:18:30;100194.06;;;9.70;81.25
70314;BME280;57725;47.526;18.986;2023-03-19T01:20:58;100189.81;;;9.68;81.48
70314;BME280;57725;47.526;18.986;2023-03-19T01:23:24;100191.56;;;9.67;81.47
70314;BME280;57725;47.526;18.986;2023-03-19T01:25:52;100190.75;;;9.65;81.13
70314;BME280;57725;47.526;18.986;2023-03-19T01:28:21;100190.00;;;9.62;81.56
70314;BME280;57725;47.526;18.986;2023-03-19T01:30:51;100195.22;;;9.62;81.39
70314;BME280;57725;47.526;18.986;2023-03-19T01:33:17;100184.81;;;9.60;81.72
70314;BME280;57725;47.526;18.986;2023-03-19T01:35:45;100184.88;;;9.59;81.68
70314;BME280;57725;47.526;18.986;2023-03-19T01:38:14;100185.00;;;9.56;81.50
70314;BME280;57725;47.526;18.986;2023-03-19T01:40:46;100183.28;;;9.55;81.96
70314;BME280;57725;47.526;18.986;2023-03-19T01:43:13;100185.06;;;9.54;81.60
70314;BME280;57725;47.526;18.986;2023-03-19T01:45:43;100182.50;;;9.53;82.11
70314;BME280;57725;47.526;18.986;2023-03-19T01:50:52;100182.53;;;9.51;81.99
70314;BME280;57725;47.526;18.986;2023-03-19T01:53:25;100185.19;;;9.50;82.15
70314;BME280;57725;47.526;18.986;2023-03-19T01:55:54;100179.28;;;9.44;82.05
70314;BME280;57725;47.526;18.986;2023-03-19T01:58:22;100175.88;;;9.42;82.06
70314;BME280;57725;47.526;18.986;2023-03-19T02:00:51;100181.94;;;9.43;82.40
70314;BME280;57725;47.526;18.986;2023-03-19T02:03:21;100173.34;;;9.39;82.12
70314;BME280;57725;47.526;18.986;2023-03-19T02:05:51;100180.38;;;9.37;82.64
70314;BME280;57725;47.526;18.986;2023-03-19T02:08:19;100178.56;;;9.39;82.34
70314;BME280;57725;47.526;18.986;2023-03-19T02:10:48;100175.09;;;9.39;82.70
70314;BME280;57725;47.526;18.986;2023-03-19T02:13:14;100177.75;;;9.37;82.56
70314;BME280;57725;47.526;18.986;2023-03-19T02:15:40;100179.53;;;9.37;82.46
70314;BME280;57725;47.526;18.986;2023-03-19T02:18:06;100173.63;;;9.32;82.76
70314;BME280;57725;47.526;18.986;2023-03-19T02:25:49;100176.22;;;9.32;82.78
70314;BME280;57725;47.526;18.986;2023-03-19T02:28:18;100175.47;;;9.28;82.65
70314;BME280;57725;47.526;18.986;2023-03-19T02:30:46;100172.91;;;9.27;82.62
70314;BME280;57725;47.526;18.986;2023-03-19T02:33:14;100170.28;;;9.27;82.73
70314;BME280;57725;47.526;18.986;2023-03-19T02:35:46;100172.94;;;9.25;82.67
70314;BME280;57725;47.526;18.986;2023-03-19T02:38:15;100171.25;;;9.24;83.04
70314;BME280;57725;47.526;18.986;2023-03-19T02:41:04;100169.53;;;9.23;82.81
70314;BME280;57725;47.526;18.986;2023-03-19T02:43:35;100172.22;;;9.22;83.23
70314;BME280;57725;47.526;18.986;2023-03-19T02:46:10;100165.28;;;9.21;83.10
70314;BME280;57725;47.526;18.986;2023-03-19T02:48:36;100161.03;;;9.18;82.88
70314;BME280;57725;47.526;18.986;2023-03-19T02:51:02;100165.38;;;9.18;82.96
70314;BME280;57725;47.526;18.986;2023-03-19T02:53:31;100165.38;;;9.18;83.50
70314;BME280;57725;47.526;18.986;2023-03-19T02:55:56;100168.88;;;9.17;83.10
70314;BME280;57725;47.526;18.986;2023-03-19T02:58:21;100168.94;;;9.15;83.44
70314;BME280;57725;47.526;18.986;2023-03-19T03:00:55;100171.59;;;9.14;83.18
70314;BME280;57725;47.526;18.986;2023-03-19T03:03:27;100170.72;;;9.13;83.41
70314;BME280;57725;47.526;18.986;2023-03-19T03:05:52;100176.00;;;9.12;83.88
70314;BME280;57725;47.526;18.986;2023-03-19T03:08:18;100185.59;;;9.11;83.62
70314;BME280;57725;47.526;18.986;2023-03-19T03:10:47;100185.66;;;9.10;83.84
70314;BME280;57725;47.526;18.986;2023-03-19T03:13:12;100180.44;;;9.10;83.68
70314;BME280;57725;47.526;18.986;2023-03-19T03:15:40;100184.78;;;9.09;83.68
70314;BME280;57725;47.526;18.986;2023-03-19T03:18:10;100181.38;;;9.07;84.31
70314;BME280;57725;47.526;18.986;2023-03-19T03:20:36;100172.75;;;9.05;84.30
70314;BME280;57725;47.526;18.986;2023-03-19T03:23:01;100185.78;;;9.05;84.27
70314;BME280;57725;47.526;18.986;2023-03-19T03:25:27;100186.69;;;9.04;84.47
70314;BME280;57725;47.526;18.986;2023-03-19T03:27:58;100191.94;;;9.02;84.53
70314;BME280;57725;47.526;18.986;2023-03-19T03:30:28;100186.78;;;9.01;84.57
70314;BME280;57725;47.526;18.986;2023-03-19T03:32:56;100176.47;;;8.98;84.74
70314;BME280;57725;47.526;18.986;2023-03-19T03:35:21;100179.09;;;8.96;84.59
70314;BME280;57725;47.526;18.986;2023-03-19T03:37:51;100173.03;;;8.96;84.72
70314;BME280;57725;47.526;18.986;2023-03-19T03:40:21;100183.44;;;8.97;84.33
70314;BME280;57725;47.526;18.986;2023-03-19T03:42:47;100178.31;;;8.94;84.50
70314;BME280;57725;47.526;18.986;2023-03-19T03:45:15;100177.44;;;8.94;84.54
70314;BME280;57725;47.526;18.986;2023-03-19T03:47:43;100185.22;;;8.95;84.54
70314;BME280;57725;47.526;18.986;2023-03-19T03:50:11;100185.25;;;8.94;84.35
70314;BME280;57725;47.526;18.986;2023-03-19T03:52:38;100180.13;;;8.91;84.43
70314;BME280;57725;47.526;18.986;2023-03-19T03:55:07;100175.81;;;8.90;84.86
70314;BME280;57725;47.526;18.986;2023-03-19T03:57:33;100183.66;;;8.90;84.73
70314;BME280;57725;47.526;18.986;2023-03-19T04:00:01;100184.53;;;8.89;84.59
70314;BME280;57725;47.526;18.986;2023-03-19T04:02:28;100184.53;;;8.89;84.64
70314;BME280;57725;47.526;18.986;2023-03-19T04:04:57;100188.94;;;8.88;85.00
70314;BME280;57725;47.526;18.986;2023-03-19T04:07:22;100185.56;;;8.85;84.92
70314;BME280;57725;47.526;18.986;2023-03-19T04:09:47;100193.38;;;8.85;85.15
70314;BME280;57725;47.526;18.986;2023-03-19T04:12:15;100179.53;;;8.83;84.85
70314;BME280;57725;47.526;18.986;2023-03-19T04:14:40;100189.06;;;8.84;85.00
70314;BME280;57725;47.526;18.986;2023-03-19T04:17:06;100186.50;;;8.82;84.79
70314;BME280;57725;47.526;18.986;2023-03-19T04:19:31;100183.94;;;8.81;85.13
70314;BME280;57725;47.526;18.986;2023-03-19T04:21:59;100170.91;;;8.81;85.21
70314;BME280;57725;47.526;18.986;2023-03-19T04:24:27;100164.91;;;8.77;85.18
70314;BME280;57725;47.526;18.986;2023-03-19T04:26:56;100168.38;;;8.78;85.11
70314;BME280;57725;47.526;18.986;2023-03-19T04:29:27;100166.69;;;8.77;85.21
70314;BME280;57725;47.526;18.986;2023-03-19T04:31:52;100173.66;;;8.76;85.04
70314;BME280;57725;47.526;18.986;2023-03-19T04:34:17;100169.31;;;8.77;85.32
70314;BME280;57725;47.526;18.986;2023-03-19T04:36:46;100158.91;;;8.75;85.07
70314;BME280;57725;47.526;18.986;2023-03-19T04:39:13;100164.19;;;8.74;85.07
70314;BME280;57725;47.526;18.986;2023-03-19T04:41:39;100158.16;;;8.71;85.16
70314;BME280;57725;47.526;18.986;2023-03-19T04:44:07;100162.50;;;8.71;85.00
70314;BME280;57725;47.526;18.986;2023-03-19T04:46:34;100168.59;;;8.71;85.37
70314;BME280;57725;47.526;18.986;2023-03-19T04:49:00;100172.13;;;8.69;85.35
70314;BME280;57725;47.526;18.986;2023-03-19T04:51:31;100173.03;;;8.68;85.42
70314;BME280;57725;47.526;18.986;2023-03-19T04:53:56;100183.44;;;8.68;85.16
70314;BME280;57725;47.526;18.986;2023-03-19T04:56:22;100183.50;;;8.66;85.52
70314;BME280;57725;47.526;18.986;2023-03-19T04:58:47;100181.78;;;8.65;85.10
70314;BME280;57725;47.526;18.986;2023-03-19T05:01:13;100186.16;;;8.65;85.52
70314;BME280;57725;47.526;18.986;2023-03-19T05:03:45;100184.50;;;8.62;85.41
70314;BME280;57725;47.526;18.986;2023-03-19T05:06:11;100181.03;;;8.62;85.37
70314;BME280;57725;47.526;18.986;2023-03-19T05:08:39;100183.66;;;8.62;85.46
70314;BME280;57725;47.526;18.986;2023-03-19T05:11:04;100187.16;;;8.61;85.47
70314;BME280;57725;47.526;18.986;2023-03-19T05:13:33;100180.34;;;8.55;85.44
70314;BME280;57725;47.526;18.986;2023-03-19T05:16:00;100201.13;;;8.58;85.67
70314;BME280;57725;47.526;18.986;2023-03-19T05:18:26;100202.88;;;8.58;85.44
70314;BME280;57725;47.526;18.986;2023-03-19T05:20:55;100193.38;;;8.55;85.74
70314;BME280;57725;47.526;18.986;2023-03-19T05:23:23;100190.88;;;8.52;85.67
70314;BME280;57725;47.526;18.986;2023-03-19T05:25:51;100190.03;;;8.52;85.76
70314;BME280;57725;47.526;18.986;2023-03-19T05:28:16;100185.72;;;8.51;85.78
70314;BME280;57725;47.526;18.986;2023-03-19T05:30:42;100194.41;;;8.51;85.95
70314;BME280;57725;47.526;18.986;2023-03-19T05:33:10;100199.63;;;8.50;86.14
70314;BME280;57725;47.526;18.986;2023-03-19T05:35:38;100201.34;;;8.51;85.93
70314;BME280;57725;47.526;18.986;2023-03-19T05:38:07;100210.91;;;8.50;86.18
70314;BME280;57725;47.526;18.986;2023-03-19T05:40:32;100200.63;;;8.46;86.08
70314;BME280;57725;47.526;18.986;2023-03-19T05:43:00;100205.78;;;8.47;86.15
70314;BME280;57725;47.526;18.986;2023-03-19T05:45:26;100216.25;;;8.46;86.15
70314;BME280;57725;47.526;18.986;2023-03-19T05:47:51;100207.63;;;8.44;86.14
70314;BME280;57725;47.526;18.986;2023-03-19T05:50:19;100209.31;;;8.45;86.78
70314;BME280;57725;47.526;18.986;2023-03-19T05:52:47;100202.38;;;8.45;86.75
70314;BME280;57725;47.526;18.986;2023-03-19T05:55:12;100192.84;;;8.44;86.91
70314;BME280;57725;47.526;18.986;2023-03-19T05:57:41;100194.69;;;8.41;87.05
70314;BME280;57725;47.526;18.986;2023-03-19T06:00:07;100207.69;;;8.42;87.09
70314;BME280;57725;47.526;18.986;2023-03-19T06:02:34;100207.69;;;8.42;87.25
70314;BME280;57725;47.526;18.986;2023-03-19T06:05:00;100211.13;;;8.43;87.36
70314;BME280;57725;47.526;18.986;2023-03-19T06:07:26;100210.28;;;8.42;87.37
70314;BME280;57725;47.526;18.986;2023-03-19T06:09:56;100211.13;;;8.43;87.87
70314;BME280;57725;47.526;18.986;2023-03-19T06:12:21;100220.75;;;8.41;88.79
70314;BME280;57725;47.526;18.986;2023-03-19T06:14:47;100217.28;;;8.40;88.89
70314;BME280;57725;47.526;18.986;2023-03-19T06:17:18;100212.97;;;8.39;89.21
70314;BME280;57725;47.526;18.986;2023-03-19T06:19:43;100208.69;;;8.37;89.13
70314;BME280;57725;47.526;18.986;2023-03-19T06:22:09;100212.16;;;8.37;89.00
70314;BME280;57725;47.526;18.986;2023-03-19T06:24:35;100211.38;;;8.33;88.97
70314;BME280;57725;47.526;18.986;2023-03-19T06:27:01;100214.84;;;8.34;89.65
70314;BME280;57725;47.526;18.986;2023-03-19T06:29:27;100212.25;;;8.34;89.30
70314;BME280;57725;47.526;18.986;2023-03-19T06:31:52;100219.19;;;8.33;89.78
70314;BME280;57725;47.526;18.986;2023-03-19T06:34:18;100229.66;;;8.32;89.82
70314;BME280;57725;47.526;18.986;2023-03-19T06:36:45;100231.41;;;8.31;89.97
70314;BME280;57725;47.526;18.986;2023-03-19T06:39:11;100227.09;;;8.30;90.22
70314;BME280;57725;47.526;18.986;2023-03-19T06:41:37;100228.84;;;8.30;90.24
70314;BME280;57725;47.526;18.986;2023-03-19T06:44:03;100240.16;;;8.29;90.25
70314;BME280;57725;47.526;18.986;2023-03-19T06:46:33;100241.91;;;8.28;90.03
70314;BME280;57725;47.526;18.986;2023-03-19T06:49:04;100243.66;;;8.28;90.43
70314;BME280;57725;47.526;18.986;2023-03-19T06:51:29;100238.44;;;8.28;90.22
70314;BME280;57725;47.526;18.986;2023-03-19T06:53:59;100241.06;;;8.28;90.46
70314;BME280;57725;47.526;18.986;2023-03-19T06:56:24;100235.00;;;8.27;90.61
70314;BME280;57725;47.526;18.986;2023-03-19T06:58:50;100236.78;;;8.25;90.31
70314;BME280;57725;47.526;18.986;2023-03-19T07:01:16;100238.47;;;8.26;90.57
70314;BME280;57725;47.526;18.986;2023-03-19T07:03:43;100236.78;;;8.25;90.68
70314;BME280;57725;47.526;18.986;2023-03-19T07:06:11;100235.03;;;8.26;90.65
70314;BME280;57725;47.526;18.986;2023-03-19T07:08:37;100230.72;;;8.25;90.51
70314;BME280;57725;47.526;18.986;2023-03-19T07:11:05;100238.47;;;8.26;90.72
70314;BME280;57725;47.526;18.986;2023-03-19T07:13:32;100231.56;;;8.25;90.67
70314;BME280;57725;47.526;18.986;2023-03-19T07:16:00;100226.38;;;8.24;90.43
70314;BME280;57725;47.526;18.986;2023-03-19T07:18:25;100225.47;;;8.26;90.45
70314;BME280;57725;47.526;18.986;2023-03-19T07:20:51;100220.25;;;8.26;90.58
70314;BME280;57725;47.526;18.986;2023-03-19T07:23:19;100208.16;;;8.24;90.76
70314;BME280;57725;47.526;18.986;2023-03-19T07:25:44;100209.88;;;8.25;90.76
70314;BME280;57725;47.526;18.986;2023-03-19T07:28:12;100217.69;;;8.25;90.75
70314;BME280;57725;47.526;18.986;2023-03-19T07:30:37;100226.38;;;8.24;90.91
70314;BME280;57725;47.526;18.986;2023-03-19T07:33:05;100231.59;;;8.24;90.79
70314;BME280;57725;47.526;18.986;2023-03-19T07:35:33;100237.69;;;8.23;90.74
70314;BME280;57725;47.526;18.986;2023-03-19T07:38:01;100231.63;;;8.22;90.72
70314;BME280;57725;47.526;18.986;2023-03-19T07:40:27;100231.63;;;8.22;90.76
70314;BME280;57725;47.526;18.986;2023-03-19T07:42:52;100224.72;;;8.21;90.59
70314;BME280;57725;47.526;18.986;2023-03-19T07:45:20;100229.88;;;8.23;90.59
70314;BME280;57725;47.526;18.986;2023-03-19T07:47:45;100224.69;;;8.23;90.45
70314;BME280;57725;47.526;18.986;2023-03-19T07:50:16;100222.97;;;8.22;90.71
70314;BME280;57725;47.526;18.986;2023-03-19T07:52:46;100223.00;;;8.20;90.88
70314;BME280;57725;47.526;18.986;2023-03-19T07:55:14;100216.00;;;8.22;90.96
70314;BME280;57725;47.526;18.986;2023-03-19T07:57:42;100222.06;;;8.23;90.70
70314;BME280;57725;47.526;18.986;2023-03-19T08:00:09;100228.13;;;8.23;90.67
70314;BME280;57725;47.526;18.986;2023-03-19T08:02:38;100217.75;;;8.22;90.90
70314;BME280;57725;47.526;18.986;2023-03-19T08:05:03;100222.06;;;8.23;91.01
70314;BME280;57725;47.526;18.986;2023-03-19T08:07:30;100219.47;;;8.23;90.89
70314;BME280;57725;47.526;18.986;2023-03-19T08:09:56;100221.22;;;8.22;90.85
70314;BME280;57725;47.526;18.986;2023-03-19T08:12:23;100209.97;;;8.20;90.80
70314;BME280;57725;47.526;18.986;2023-03-19T08:14:50;100212.56;;;8.22;90.83
70314;BME280;57725;47.526;18.986;2023-03-19T08:17:18;100209.09;;;8.21;90.49
70314;BME280;57725;47.526;18.986;2023-03-19T08:19:46;100211.69;;;8.21;90.45
70314;BME280;57725;47.526;18.986;2023-03-19T08:22:11;100202.16;;;8.20;90.82
70314;BME280;57725;47.526;18.986;2023-03-19T08:24:39;100212.66;;;8.19;90.58
70314;BME280;57725;47.526;18.986;2023-03-19T08:27:05;100216.88;;;8.23;90.61
70314;BME280;57725;47.526;18.986;2023-03-19T08:29:30;100213.41;;;8.22;90.61
70314;BME280;57725;47.526;18.986;2023-03-19T08:31:56;100213.41;;;8.22;90.71
70314;BME280;57725;47.526;18.986;2023-03-19T08:34:23;100216.00;;;8.22;90.88
70314;BME280;57725;47.526;18.986;2023-03-19T08:36:48;100213.41;;;8.22;90.84
70314;BME280;57725;47.526;18.986;2023-03-19T08:39:16;100212.56;;;8.22;90.79
70314;BME280;57725;47.526;18.986;2023-03-19T08:41:46;100207.34;;;8.22;90.68
70314;BME280;57725;47.526;18.986;2023-03-19T08:44:12;100209.97;;;8.20;90.92
70314;BME280;57725;47.526;18.986;2023-03-19T08:46:40;100220.38;;;8.22;90.76
70314;BME280;57725;47.526;18.986;2023-03-19T08:49:09;100203.00;;;8.22;90.87
70314;BME280;57725;47.526;18.986;2023-03-19T08:51:36;100200.38;;;8.22;90.69
70314;BME280;57725;47.526;18.986;2023-03-19T08:54:04;100201.25;;;8.23;90.63
70314;BME280;57725;47.526;18.986;2023-03-19T08:56:30;100207.31;;;8.23;90.68
70314;BME280;57725;47.526;18.986;2023-03-19T08:58:58;100200.34;;;8.24;90.76
70314;BME280;57725;47.526;18.986;2023-03-19T09:01:23;100196.94;;;8.22;90.57
70314;BME280;57725;47.526;18.986;2023-03-19T09:03:51;100198.59;;;8.24;90.51
70314;BME280;57725;47.526;18.986;2023-03-19T09:06:19;100197.78;;;8.22;90.73
70314;BME280;57725;47.526;18.986;2023-03-19T09:08:44;100193.38;;;8.24;90.56
70314;BME280;57725;47.526;18.986;2023-03-19T09:11:16;100186.44;;;8.25;90.79
70314;BME280;57725;47.526;18.986;2023-03-19T09:13:44;100195.94;;;8.26;90.74
70314;BME280;57725;47.526;18.986;2023-03-19T09:16:12;100195.06;;;8.27;90.52
70314;BME280;57725;47.526;18.986;2023-03-19T09:18:40;100190.78;;;8.24;90.31
70314;BME280;57725;47.526;18.986;2023-03-19T09:21:06;100189.03;;;8.25;90.50
70314;BME280;57725;47.526;18.986;2023-03-19T09:23:36;100195.09;;;8.25;90.52
70314;BME280;57725;47.526;18.986;2023-03-19T09:26:04;100194.16;;;8.28;90.57
70314;BME280;57725;47.526;18.986;2023-03-19T09:28:29;100201.97;;;8.28;90.50
70314;BME280;57725;47.526;18.986;2023-03-19T09:30:57;100190.66;;;8.29;90.33
70314;BME280;57725;47.526;18.986;2023-03-19T09:33:25;100184.63;;;8.27;90.56
70314;BME280;57725;47.526;18.986;2023-03-19T09:35:52;100187.16;;;8.30;90.73
70314;BME280;57725;47.526;18.986;2023-03-19T09:38:19;100182.84;;;8.29;90.38
70314;BME280;57725;47.526;18.986;2023-03-19T09:40:52;100179.34;;;8.30;90.77
70314;BME280;57725;47.526;18.986;2023-03-19T09:43:35;100180.22;;;8.30;90.42
70314;BME280;57725;47.526;18.986;2023-03-19T09:46:15;100172.44;;;8.29;90.69
70314;BME280;57725;47.526;18.986;2023-03-19T09:48:45;100168.00;;;8.32;90.84
70314;BME280;57725;47.526;18.986;2023-03-19T09:51:18;100166.31;;;8.30;90.34
70314;BME280;57725;47.526;18.986;2023-03-19T09:54:01;100168.00;;;8.32;90.54
70314;BME280;57725;47.526;18.986;2023-03-19T09:56:28;100167.09;;;8.33;90.46
70314;BME280;57725;47.526;18.986;2023-03-19T09:58:56;100170.56;;;8.34;90.42
70314;BME280;57725;47.526;18.986;2023-03-19T10:01:26;100176.59;;;8.36;90.62
70314;BME280;57725;47.526;18.986;2023-03-19T10:06:34;100180.03;;;8.37;90.49
70314;BME280;57725;47.526;18.986;2023-03-19T10:20:18;100167.78;;;8.40;90.50
70314;BME280;57725;47.526;18.986;2023-03-19T10:22:50;100155.63;;;8.41;90.35
70314;BME280;57725;47.526;18.986;2023-03-19T10:25:25;100146.94;;;8.40;90.40
70314;BME280;57725;47.526;18.986;2023-03-19T10:28:16;100147.81;;;8.41;90.34
70314;BME280;57725;47.526;18.986;2023-03-19T10:30:51;100148.66;;;8.41;90.55
70314;BME280;57725;47.526;18.986;2023-03-19T10:33:24;100148.66;;;8.41;90.38
70314;BME280;57725;47.526;18.986;2023-03-19T10:36:04;100137.34;;;8.42;90.30
70314;BME280;57725;47.526;18.986;2023-03-19T10:38:38;100142.47;;;8.44;90.35
70314;BME280;57725;47.526;18.986;2023-03-19T10:43:44;100125.94;;;8.45;90.21
70314;BME280;57725;47.526;18.986;2023-03-19T10:46:15;100131.13;;;8.46;90.45
70314;BME280;57725;47.526;18.986;2023-03-19T10:48:45;100118.94;;;8.47;90.11
70314;BME280;57725;47.526;18.986;2023-03-19T10:51:15;100116.31;;;8.48;90.34
70314;BME280;57725;47.526;18.986;2023-03-19T10:53:41;100116.31;;;8.48;90.27
70314;BME280;57725;47.526;18.986;2023-03-19T10:56:22;100114.56;;;8.49;90.44
70314;BME280;57725;47.526;18.986;2023-03-19T10:59:01;100104.97;;;8.49;90.46
70314;BME280;57725;47.526;18.986;2023-03-19T11:01:38;100100.66;;;8.48;90.16
70314;BME280;57725;47.526;18.986;2023-03-19T11:04:22;100102.34;;;8.51;90.21
70314;BME280;57725;47.526;18.986;2023-03-19T11:06:53;100094.53;;;8.51;90.21
70314;BME280;57725;47.526;18.986;2023-03-19T11:09:39;100087.56;;;8.51;90.42
70314;BME280;57725;47.526;18.986;2023-03-19T11:12:16;100082.31;;;8.53;90.20
70314;BME280;57725;47.526;18.986;2023-03-19T11:14:46;100079.69;;;8.53;90.40
70314;BME280;57725;47.526;18.986;2023-03-19T11:17:38;100088.28;;;8.55;90.17
70314;BME280;57725;47.526;18.986;2023-03-19T11:20:21;100077.88;;;8.55;90.11
70314;BME280;57725;47.526;18.986;2023-03-19T11:22:51;100066.59;;;8.54;89.95
70314;BME280;57725;47.526;18.986;2023-03-19T11:25:25;100059.59;;;8.56;90.04
70314;BME280;57725;47.526;18.986;2023-03-19T11:28:06;100056.06;;;8.57;90.13
70314;BME280;57725;47.526;18.986;2023-03-19T11:38:45;100041.28;;;8.58;90.04
70314;BME280;57725;47.526;18.986;2023-03-19T11:44:04;100051.59;;;8.62;83.83
70314;BME280;57725;47.526;18.986;2023-03-19T11:46:53;100037.63;;;8.90;73.41
70314;BME280;57725;47.526;18.986;2023-03-19T11:49:42;100022.81;;;9.17;67.66
70314;BME280;57725;47.526;18.986;2023-03-19T11:52:17;100036.47;;;9.48;69.49
70314;BME280;57725;47.526;18.986;2023-03-19T11:55:18;100036.50;;;9.23;71.60
70314;BME280;57725;47.526;18.986;2023-03-19T11:58:05;100028.19;;;9.12;75.81
70314;BME280;57725;47.526;18.986;2023-03-19T12:00:51;100026.78;;;9.02;79.38
70314;BME280;57725;47.526;18.986;2023-03-19T12:19:47;99998.00;;;8.80;85.15
70314;BME280;57725;47.526;18.986;2023-03-19T12:33:09;99977.19;;;8.79;86.46
70314;BME280;57725;47.526;18.986;2023-03-19T12:35:39;99978.94;;;8.78;86.66
70314;BME280;57725;47.526;18.986;2023-03-19T12:40:56;99961.53;;;8.79;86.54
70314;BME280;57725;47.526;18.986;2023-03-19T12:46:13;99970.22;;;8.79;86.96
70314;BME280;57725;47.526;18.986;2023-03-19T12:48:57;99958.94;;;8.79;87.05
70314;BME280;57725;47.526;18.986;2023-03-19T12:51:31;99947.59;;;8.80;86.88
70314;BME280;57725;47.526;18.986;2023-03-19T12:53:59;99948.50;;;8.79;87.17
70314;BME280;57725;47.526;18.986;2023-03-19T12:56:38;99943.28;;;8.79;87.24
70314;BME280;57725;47.526;18.986;2023-03-19T13:01:41;99935.44;;;8.80;87.58
70314;BME280;57725;47.526;18.986;2023-03-19T13:04:22;99941.50;;;8.81;87.13
70314;BME280;57725;47.526;18.986;2023-03-19T13:07:02;99931.91;;;8.81;87.82
70314;BME280;57725;47.526;18.986;2023-03-19T13:12:08;99925.84;;;8.81;87.61
70314;BME280;57725;47.526;18.986;2023-03-19T13:23:10;99919.72;;;8.82;87.80
70314;BME280;57725;47.526;18.986;2023-03-19T13:25:44;99910.25;;;8.79;88.12
70314;BME280;57725;47.526;18.986;2023-03-19T13:28:25;99920.53;;;8.84;88.02
70314;BME280;57725;47.526;18.986;2023-03-19T13:31:06;99906.69;;;8.82;88.03
70314;BME280;57725;47.526;18.986;2023-03-19T13:33:36;99905.75;;;8.84;88.16
70314;BME280;57725;47.526;18.986;2023-03-19T13:36:04;99895.31;;;8.84;88.19
70314;BME280;57725;47.526;18.986;2023-03-19T13:41:04;99905.69;;;8.86;88.04
70314;BME280;57725;47.526;18.986;2023-03-19T13:48:38;99877.94;;;8.85;88.36
70314;BME280;57725;47.526;18.986;2023-03-19T13:56:21;99876.13;;;8.87;88.08
70314;BME280;57725;47.526;18.986;2023-03-19T14:01:54;99879.50;;;8.89;88.43
70314;BME280;57725;47.526;18.986;2023-03-19T14:06:57;99874.28;;;8.89;88.35
70314;BME280;57725;47.526;18.986;2023-03-19T14:12:36;99865.69;;;8.87;88.46
70314;BME280;57725;47.526;18.986;2023-03-19T14:20:21;99875.88;;;8.93;88.54
70314;BME280;57725;47.526;18.986;2023-03-19T14:28:27;99862.00;;;8.92;88.50
70314;BME280;57725;47.526;18.986;2023-03-19T14:30:56;99861.94;;;8.94;88.46
70314;BME280;57725;47.526;18.986;2023-03-19T14:33:31;99868.88;;;8.95;88.38
70314;BME280;57725;47.526;18.986;2023-03-19T14:36:02;99863.69;;;8.93;88.73
70314;BME280;57725;47.526;18.986;2023-03-19T14:38:37;99865.34;;;8.96;88.49
70314;BME280;57725;47.526;18.986;2023-03-19T14:41:05;99866.22;;;8.96;88.70
70314;BME280;57725;47.526;18.986;2023-03-19T14:46:38;99865.31;;;8.97;88.50
70314;BME280;57725;47.526;18.986;2023-03-19T14:57:05;99860.03;;;8.99;88.62
70314;BME280;57725;47.526;18.986;2023-03-19T14:59:38;99869.53;;;9.00;88.82
70314;BME280;57725;47.526;18.986;2023-03-19T15:02:05;99873.84;;;9.01;88.65
70314;BME280;57725;47.526;18.986;2023-03-19T15:04:44;99872.09;;;9.01;88.61
70314;BME280;57725;47.526;18.986;2023-03-19T15:07:19;99867.72;;;9.02;88.68